Terminal Aerodrome Forecast
Issued by NWS

Home | Current Version | Previous Version | Graphics & Text | Print | Product List | Glossary On
Versions: 1 2 3 4 5 6 7 8 9 10 11 12 13 14 15 16 17
837
FTUS43 KICT 241127
TAFSLN
TAF
KSLN 241127Z 2412/2512 17013KT P6SM SCT080 BKN150
     FM241500 17012G18KT P6SM VCTS SCT040 BKN080CB
     FM241900 17014KT P6SM -SHRA VCTS BKN040CB
     FM250000 15010KT P6SM -SHRA VCTS BKN040CB
     FM250600 25004KT P6SM BKN080
     FM251000 31006KT P6SM BKN080=

USA.gov is the U.S. government's official web portal to all federal, state and local government web resources and services.